New Mingzhou 16 — VRLS3 — position and weather

sailwx.info

Track history (hours):
 
Tides and Currents Weather Stations Pressure Air Temp Water Temp Dewpoint Dewpoint Depression Visibility Wind Speed Wind Dir Waves Ship Positions

New Mingzhou 16

Last reported at 2018-Feb-19 14:00 UTC. Time now 2018-Feb-19 14:15 UTC.
Position N 34°50' E 136°46'.

Length 143 m; draft 7.6 m.

Type: Ship (hazmat cat A). MMSI: 477224100.

Date/timePositionNaut miles runAvg speedWind from/ knotsBaromVisibWave heightAir tempDewpointWater temp
2018-Feb-19 14:00N 34°50' E 136°46'815.5
2018-Feb-19 13:30N 34°58' E 136°46'4 8.4
2018-Feb-19 13:00N 35°01' E 136°48'0 0.1
2018-Feb-19 12:29N 35°01' E 136°48'0 0.0
2018-Feb-19 11:59N 35°01' E 136°48'0 0.0
2018-Feb-19 11:29N 35°01' E 136°48'0 0.0
2018-Feb-19 10:59N 35°01' E 136°48'0 0.0
2018-Feb-19 10:29N 35°01' E 136°48'0 0.0
2018-Feb-19 09:59N 35°01' E 136°48'0 0.0
2018-Feb-19 09:29N 35°01' E 136°48'0 0.0
2018-Feb-19 08:59N 35°01' E 136°48'0 0.0
2018-Feb-19 08:23N 35°01' E 136°48'0 0.0
2018-Feb-19 07:59N 35°01' E 136°48'0 0.0
2018-Feb-19 07:29N 35°01' E 136°48'0 0.5
2018-Feb-19 07:00N 35°01' E 136°48'4 7.3
2018-Feb-19 06:30N 34°58' E 136°46'714.7
2018-Feb-19 06:00N 34°51' E 136°46'714.2
2018-Feb-19 05:30N 34°44' E 136°49'1014.3
2018-Feb-19 04:47N 34°36' E 136°58'10511.2
2018-Feb-18 19:27N 33°39' E 135°12'915.1
2018-Feb-18 18:52N 33°45' E 135°05'615.4
2018-Feb-18 18:30N 33°50' E 135°00'714.8
2018-Feb-18 18:00N 33°57' E 134°58'815.5
2018-Feb-18 17:30N 34°04' E 134°58'815.5
2018-Feb-18 17:01N 34°12' E 134°59'815.9
2018-Feb-18 16:30N 34°20' E 134°60'714.9
2018-Feb-18 16:00N 34°26' E 135°06'815.1
2018-Feb-18 15:31N 34°31' E 135°12'714.8
2018-Feb-18 15:01N 34°38' E 135°16'3 5.8
2018-Feb-18 14:31N 34°41' E 135°16'0 0.0
2018-Feb-18 13:59N 34°41' E 135°16'0 0.0
2018-Feb-18 13:29N 34°41' E 135°16'0 0.0
2018-Feb-18 12:59N 34°41' E 135°16'0 0.0
2018-Feb-18 12:29N 34°41' E 135°16'0 0.0
2018-Feb-18 11:59N 34°41' E 135°16'0 0.0
2018-Feb-18 11:29N 34°41' E 135°16'0 0.0
2018-Feb-18 10:59N 34°41' E 135°16'0 0.0
2018-Feb-18 10:29N 34°41' E 135°16'0 0.5
2018-Feb-18 10:00N 34°41' E 135°15'3 6.9
2018-Feb-18 09:30N 34°38' E 135°18'612.4
2018-Feb-18 09:00N 34°39' E 135°26'0 0.3
2018-Feb-18 08:28N 34°39' E 135°26'0 0.0
2018-Feb-18 07:58N 34°39' E 135°26'0 0.0
2018-Feb-18 07:28N 34°39' E 135°26'0 0.0
2018-Feb-18 06:58N 34°39' E 135°26'0 0.0
2018-Feb-18 06:25N 34°39' E 135°26'0 0.0
2018-Feb-18 05:58N 34°39' E 135°26'0 0.0
2018-Feb-18 05:28N 34°39' E 135°26'0 0.0
2018-Feb-18 04:58N 34°39' E 135°26'0 0.0
2018-Feb-18 04:28N 34°39' E 135°26'0 0.0
2018-Feb-18 03:58N 34°39' E 135°26'0 0.0
2018-Feb-18 03:28N 34°39' E 135°26'0 0.0
2018-Feb-18 02:58N 34°39' E 135°26'0 0.0
2018-Feb-18 02:28N 34°39' E 135°26'0 0.0
2018-Feb-18 01:58N 34°39' E 135°26'0 0.0
2018-Feb-18 01:28N 34°39' E 135°26'0 0.0
2018-Feb-18 00:58N 34°39' E 135°26'0 0.0
2018-Feb-18 00:31N 34°39' E 135°26'0 0.0
2018-Feb-17 23:58N 34°39' E 135°26'0 0.0
2018-Feb-17 23:28N 34°39' E 135°26'0 0.0
2018-Feb-17 22:58N 34°39' E 135°26'0 0.0
2018-Feb-17 22:30N 34°39' E 135°26'1 3.0
2018-Feb-17 22:00N 34°38' E 135°24'4 8.9
2018-Feb-17 21:30N 34°36' E 135°20'611.8
2018-Feb-17 21:00N 34°32' E 135°14'713.1
2018-Feb-17 20:30N 34°27' E 135°09'713.2
2018-Feb-17 20:00N 34°23' E 135°03'713.1
2018-Feb-17 19:30N 34°17' E 134°59'713.1
2018-Feb-17 19:00N 34°10' E 134°58'714.0
2018-Feb-17 18:30N 34°03' E 134°57'713.6
2018-Feb-17 18:00N 33°57' E 134°56'712.8
2018-Feb-17 17:27N 33°50' E 134°53'913.8
2018-Feb-17 16:50N 33°44' E 134°45'  
2018-Feb-13 14:40N 30°26' E 121°43'212.7
2018-Feb-13 14:30N 30°28' E 121°42'19 1.6
2018-Feb-13 02:05N 30°34' E 121°21'2 9.7
2018-Feb-13 01:56N 30°34' E 121°23'715.4
2018-Feb-13 01:30N 30°32' E 121°30'816.3
2018-Feb-13 01:00N 30°30' E 121°40'815.6
2018-Feb-13 00:30N 30°30' E 121°49'46513.2
2018-Feb-11 13:21N 34°03' E 129°58'513.2
2018-Feb-11 13:00N 34°03' E 130°04'713.4
2018-Feb-11 12:30N 34°03' E 130°12'713.3
2018-Feb-11 12:00N 34°03' E 130°20'713.4
2018-Feb-11 11:30N 34°03' E 130°28'713.2
2018-Feb-11 11:00N 34°03' E 130°36'713.3
2018-Feb-11 10:30N 34°03' E 130°44'713.2
2018-Feb-11 10:00N 34°01' E 130°51'612.1
2018-Feb-11 09:30N 33°55' E 130°53'5 9.8
2018-Feb-11 09:01N 33°58' E 130°58'612.6
2018-Feb-11 08:30N 33°56' E 131°05'714.0
2018-Feb-11 08:01N 33°52' E 131°12'713.8
2018-Feb-11 07:30N 33°50' E 131°20'714.4
2018-Feb-11 07:00N 33°49' E 131°29'714.1
2018-Feb-11 06:30N 33°47' E 131°37'713.8
2018-Feb-11 06:00N 33°46' E 131°45'2413.9
2018-Feb-11 04:18N 33°43' E 132°14'1414.8
2018-Feb-11 03:20N 33°49' E 132°30'615.3
2018-Feb-11 02:55N 33°53' E 132°35'715.5
2018-Feb-11 02:29N 33°57' E 132°42'7412.9
2018-Feb-10 20:45N 34°27' E 134°03'414.7
2018-Feb-10 20:27N 34°26' E 134°08'715.0
2018-Feb-10 20:00N 34°24' E 134°16'714.8
2018-Feb-10 19:30N 34°26' E 134°25'714.7
2018-Feb-10 19:00N 34°28' E 134°33'714.6
2018-Feb-10 18:30N 34°31' E 134°42'714.6
2018-Feb-10 18:00N 34°34' E 134°50'714.8
2018-Feb-10 17:31N 34°37' E 134°58'612.9
2018-Feb-10 17:01N 34°35' E 135°05'714.2
2018-Feb-10 16:30N 34°28' E 135°03'714.6
2018-Feb-10 16:00N 34°21' E 135°01'713.7
2018-Feb-10 15:30N 34°14' E 134°59'714.0
2018-Feb-10 15:00N 34°07' E 134°59'714.3
2018-Feb-10 14:30N 34°00' E 134°60'713.6
2018-Feb-10 14:00N 33°53' E 135°00'713.1
2018-Feb-10 13:30N 33°48' E 135°04'813.9
2018-Feb-10 12:55N 33°42' E 135°11'7512.8
2018-Feb-10 07:05N 33°60' E 136°38'316.5
2018-Feb-10 06:53N 34°02' E 136°41'616.4
2018-Feb-10 06:30N 34°06' E 136°46'5714.8
2018-Feb-10 02:40N 34°23' E 137°52'315.4
2018-Feb-10 02:29N 34°23' E 137°55'1115.4
2018-Feb-10 01:48N 34°25' E 138°08'515.5
2018-Feb-10 01:29N 34°26' E 138°14'815.9
2018-Feb-10 01:00N 34°28' E 138°23'916.0
2018-Feb-10 00:27N 34°29' E 138°33'1516.0
2018-Feb-09 23:33N 34°32' E 138°51'115.6
2018-Feb-09 23:30N 34°32' E 138°51'5914.7
2018-Feb-09 19:31N 35°11' E 139°45'1312.6
2018-Feb-09 18:30N 35°23' E 139°42'4 8.7
2018-Feb-09 18:01N 35°28' E 139°42'  
Track history (hours):
 
Tides and Currents Weather Stations Pressure Air Temp Water Temp Dewpoint Dewpoint Depression Visibility Wind Speed Wind Dir Waves Ship Positions

New Mingzhou 16

Last reported at 2018-Feb-19 14:00 UTC. Time now 2018-Feb-19 14:15 UTC.
Position N 34°50' E 136°46'.

Length 143 m; draft 7.6 m.

Type: Ship (hazmat cat A). MMSI: 477224100.

Date/timePositionNaut miles runAvg speedWind from/ knotsBaromVisibWave heightAir tempDewpointWater temp
2018-Feb-19 14:00N 34°50' E 136°46'815.5
2018-Feb-19 13:30N 34°58' E 136°46'4 8.4
2018-Feb-19 13:00N 35°01' E 136°48'0 0.1
2018-Feb-19 12:29N 35°01' E 136°48'0 0.0
2018-Feb-19 11:59N 35°01' E 136°48'0 0.0
2018-Feb-19 11:29N 35°01' E 136°48'0 0.0
2018-Feb-19 10:59N 35°01' E 136°48'0 0.0
2018-Feb-19 10:29N 35°01' E 136°48'0 0.0
2018-Feb-19 09:59N 35°01' E 136°48'0 0.0
2018-Feb-19 09:29N 35°01' E 136°48'0 0.0
2018-Feb-19 08:59N 35°01' E 136°48'0 0.0
2018-Feb-19 08:23N 35°01' E 136°48'0 0.0
2018-Feb-19 07:59N 35°01' E 136°48'0 0.0
2018-Feb-19 07:29N 35°01' E 136°48'0 0.5
2018-Feb-19 07:00N 35°01' E 136°48'4 7.3
2018-Feb-19 06:30N 34°58' E 136°46'714.7
2018-Feb-19 06:00N 34°51' E 136°46'714.2
2018-Feb-19 05:30N 34°44' E 136°49'1014.3
2018-Feb-19 04:47N 34°36' E 136°58'10511.2
2018-Feb-18 19:27N 33°39' E 135°12'915.1
2018-Feb-18 18:52N 33°45' E 135°05'615.4
2018-Feb-18 18:30N 33°50' E 135°00'714.8
2018-Feb-18 18:00N 33°57' E 134°58'815.5
2018-Feb-18 17:30N 34°04' E 134°58'815.5
2018-Feb-18 17:01N 34°12' E 134°59'815.9
2018-Feb-18 16:30N 34°20' E 134°60'714.9
2018-Feb-18 16:00N 34°26' E 135°06'815.1
2018-Feb-18 15:31N 34°31' E 135°12'714.8
2018-Feb-18 15:01N 34°38' E 135°16'3 5.8
2018-Feb-18 14:31N 34°41' E 135°16'0 0.0
2018-Feb-18 13:59N 34°41' E 135°16'0 0.0
2018-Feb-18 13:29N 34°41' E 135°16'0 0.0
2018-Feb-18 12:59N 34°41' E 135°16'0 0.0
2018-Feb-18 12:29N 34°41' E 135°16'0 0.0
2018-Feb-18 11:59N 34°41' E 135°16'0 0.0
2018-Feb-18 11:29N 34°41' E 135°16'0 0.0
2018-Feb-18 10:59N 34°41' E 135°16'0 0.0
2018-Feb-18 10:29N 34°41' E 135°16'0 0.5
2018-Feb-18 10:00N 34°41' E 135°15'3 6.9
2018-Feb-18 09:30N 34°38' E 135°18'612.4
2018-Feb-18 09:00N 34°39' E 135°26'0 0.3
2018-Feb-18 08:28N 34°39' E 135°26'0 0.0
2018-Feb-18 07:58N 34°39' E 135°26'0 0.0
2018-Feb-18 07:28N 34°39' E 135°26'0 0.0
2018-Feb-18 06:58N 34°39' E 135°26'0 0.0
2018-Feb-18 06:25N 34°39' E 135°26'0 0.0
2018-Feb-18 05:58N 34°39' E 135°26'0 0.0
2018-Feb-18 05:28N 34°39' E 135°26'0 0.0
2018-Feb-18 04:58N 34°39' E 135°26'0 0.0
2018-Feb-18 04:28N 34°39' E 135°26'0 0.0
2018-Feb-18 03:58N 34°39' E 135°26'0 0.0
2018-Feb-18 03:28N 34°39' E 135°26'0 0.0
2018-Feb-18 02:58N 34°39' E 135°26'0 0.0
2018-Feb-18 02:28N 34°39' E 135°26'0 0.0
2018-Feb-18 01:58N 34°39' E 135°26'0 0.0
2018-Feb-18 01:28N 34°39' E 135°26'0 0.0
2018-Feb-18 00:58N 34°39' E 135°26'0 0.0
2018-Feb-18 00:31N 34°39' E 135°26'0 0.0
2018-Feb-17 23:58N 34°39' E 135°26'0 0.0
2018-Feb-17 23:28N 34°39' E 135°26'0 0.0
2018-Feb-17 22:58N 34°39' E 135°26'0 0.0
2018-Feb-17 22:30N 34°39' E 135°26'1 3.0
2018-Feb-17 22:00N 34°38' E 135°24'4 8.9
2018-Feb-17 21:30N 34°36' E 135°20'611.8
2018-Feb-17 21:00N 34°32' E 135°14'713.1
2018-Feb-17 20:30N 34°27' E 135°09'713.2
2018-Feb-17 20:00N 34°23' E 135°03'713.1
2018-Feb-17 19:30N 34°17' E 134°59'713.1
2018-Feb-17 19:00N 34°10' E 134°58'714.0
2018-Feb-17 18:30N 34°03' E 134°57'713.6
2018-Feb-17 18:00N 33°57' E 134°56'712.8
2018-Feb-17 17:27N 33°50' E 134°53'913.8
2018-Feb-17 16:50N 33°44' E 134°45'  
2018-Feb-13 14:40N 30°26' E 121°43'212.7
2018-Feb-13 14:30N 30°28' E 121°42'19 1.6
2018-Feb-13 02:05N 30°34' E 121°21'2 9.7
2018-Feb-13 01:56N 30°34' E 121°23'715.4
2018-Feb-13 01:30N 30°32' E 121°30'816.3
2018-Feb-13 01:00N 30°30' E 121°40'815.6
2018-Feb-13 00:30N 30°30' E 121°49'46513.2
2018-Feb-11 13:21N 34°03' E 129°58'513.2
2018-Feb-11 13:00N 34°03' E 130°04'713.4
2018-Feb-11 12:30N 34°03' E 130°12'713.3
2018-Feb-11 12:00N 34°03' E 130°20'713.4
2018-Feb-11 11:30N 34°03' E 130°28'713.2
2018-Feb-11 11:00N 34°03' E 130°36'713.3
2018-Feb-11 10:30N 34°03' E 130°44'713.2
2018-Feb-11 10:00N 34°01' E 130°51'612.1
2018-Feb-11 09:30N 33°55' E 130°53'5 9.8
2018-Feb-11 09:01N 33°58' E 130°58'612.6
2018-Feb-11 08:30N 33°56' E 131°05'714.0
2018-Feb-11 08:01N 33°52' E 131°12'713.8
2018-Feb-11 07:30N 33°50' E 131°20'714.4
2018-Feb-11 07:00N 33°49' E 131°29'714.1
2018-Feb-11 06:30N 33°47' E 131°37'713.8
2018-Feb-11 06:00N 33°46' E 131°45'2413.9
2018-Feb-11 04:18N 33°43' E 132°14'1414.8
2018-Feb-11 03:20N 33°49' E 132°30'615.3
2018-Feb-11 02:55N 33°53' E 132°35'715.5
2018-Feb-11 02:29N 33°57' E 132°42'7412.9
2018-Feb-10 20:45N 34°27' E 134°03'414.7
2018-Feb-10 20:27N 34°26' E 134°08'715.0
2018-Feb-10 20:00N 34°24' E 134°16'714.8
2018-Feb-10 19:30N 34°26' E 134°25'714.7
2018-Feb-10 19:00N 34°28' E 134°33'714.6
2018-Feb-10 18:30N 34°31' E 134°42'714.6
2018-Feb-10 18:00N 34°34' E 134°50'714.8
2018-Feb-10 17:31N 34°37' E 134°58'612.9
2018-Feb-10 17:01N 34°35' E 135°05'714.2
2018-Feb-10 16:30N 34°28' E 135°03'714.6
2018-Feb-10 16:00N 34°21' E 135°01'713.7
2018-Feb-10 15:30N 34°14' E 134°59'714.0
2018-Feb-10 15:00N 34°07' E 134°59'714.3
2018-Feb-10 14:30N 34°00' E 134°60'713.6
2018-Feb-10 14:00N 33°53' E 135°00'713.1
2018-Feb-10 13:30N 33°48' E 135°04'813.9
2018-Feb-10 12:55N 33°42' E 135°11'7512.8
2018-Feb-10 07:05N 33°60' E 136°38'316.5
2018-Feb-10 06:53N 34°02' E 136°41'616.4
2018-Feb-10 06:30N 34°06' E 136°46'5714.8
2018-Feb-10 02:40N 34°23' E 137°52'315.4
2018-Feb-10 02:29N 34°23' E 137°55'1115.4
2018-Feb-10 01:48N 34°25' E 138°08'515.5
2018-Feb-10 01:29N 34°26' E 138°14'815.9
2018-Feb-10 01:00N 34°28' E 138°23'916.0
2018-Feb-10 00:27N 34°29' E 138°33'1516.0
2018-Feb-09 23:33N 34°32' E 138°51'115.6
2018-Feb-09 23:30N 34°32' E 138°51'5914.7
2018-Feb-09 19:31N 35°11' E 139°45'1312.6
2018-Feb-09 18:30N 35°23' E 139°42'4 8.7
2018-Feb-09 18:01N 35°28' E 139°42'  

Dump ship's entire track history